sensor_id;sensor_type;location;lat;lon;timestamp;pressure;altitude;pressure_sealevel;temperature;humidity
6532;BME280;3299;42.004;24.868;2023-07-20T00:01:04;97779.94;;;27.04;46.73
6532;BME280;3299;42.004;24.868;2023-07-20T00:03:30;97822.13;;;27.12;46.91
6532;BME280;3299;42.004;24.868;2023-07-20T00:05:55;97841.63;;;27.42;46.57
6532;BME280;3299;42.004;24.868;2023-07-20T00:08:20;97798.72;;;27.39;46.64
6532;BME280;3299;42.004;24.868;2023-07-20T00:10:46;97800.84;;;27.48;46.56
6532;BME280;3299;42.004;24.868;2023-07-20T00:13:11;97785.56;;;27.44;46.25
6532;BME280;3299;42.004;24.868;2023-07-20T00:15:37;97791.44;;;27.34;46.63
6532;BME280;3299;42.004;24.868;2023-07-20T00:18:06;97786.88;;;27.23;46.96
6532;BME280;3299;42.004;24.868;2023-07-20T00:20:31;97800.75;;;27.25;47.36
6532;BME280;3299;42.004;24.868;2023-07-20T00:22:57;97807.56;;;27.51;46.22
6532;BME280;3299;42.004;24.868;2023-07-20T00:25:23;97794.56;;;27.43;46.18
6532;BME280;3299;42.004;24.868;2023-07-20T00:27:49;97778.69;;;27.54;46.09
6532;BME280;3299;42.004;24.868;2023-07-20T00:30:14;97827.91;;;27.86;46.89
6532;BME280;3299;42.004;24.868;2023-07-20T00:32:41;97779.06;;;27.69;47.66
6532;BME280;3299;42.004;24.868;2023-07-20T00:35:07;97811.47;;;27.78;48.34
6532;BME280;3299;42.004;24.868;2023-07-20T00:37:32;97784.34;;;27.58;49.19
6532;BME280;3299;42.004;24.868;2023-07-20T00:39:57;97785.56;;;27.44;49.78
6532;BME280;3299;42.004;24.868;2023-07-20T00:42:23;97806.09;;;27.66;49.75
6532;BME280;3299;42.004;24.868;2023-07-20T00:44:48;97799.47;;;27.46;49.73
6532;BME280;3299;42.004;24.868;2023-07-20T00:47:13;97792.09;;;27.30;50.07
6532;BME280;3299;42.004;24.868;2023-07-20T00:49:39;97783.31;;;27.11;51.51
6532;BME280;3299;42.004;24.868;2023-07-20T00:52:06;97768.50;;;27.04;52.27
6532;BME280;3299;42.004;24.868;2023-07-20T00:54:33;97769.94;;;26.88;52.93
6532;BME280;3299;42.004;24.868;2023-07-20T00:57:00;97736.31;;;26.64;53.22
6532;BME280;3299;42.004;24.868;2023-07-20T00:59:26;97731.53;;;26.55;53.57
6532;BME280;3299;42.004;24.868;2023-07-20T01:01:52;97729.75;;;26.67;53.41
6532;BME280;3299;42.004;24.868;2023-07-20T01:04:18;97745.25;;;26.70;52.36
6532;BME280;3299;42.004;24.868;2023-07-20T01:12:08;97759.69;;;26.56;51.93
6532;BME280;3299;42.004;24.868;2023-07-20T01:14:35;97737.31;;;26.09;52.79
6532;BME280;3299;42.004;24.868;2023-07-20T01:17:02;97738.09;;;26.10;52.61
6532;BME280;3299;42.004;24.868;2023-07-20T01:19:27;97739.94;;;25.91;53.33
6532;BME280;3299;42.004;24.868;2023-07-20T01:22:06;97760.28;;;25.97;54.29
6532;BME280;3299;42.004;24.868;2023-07-20T01:33:13;97708.94;;;24.99;56.00
6532;BME280;3299;42.004;24.868;2023-07-20T01:35:41;97701.91;;;24.80;56.71
6532;BME280;3299;42.004;24.868;2023-07-20T01:38:10;97717.41;;;24.76;57.39
6532;BME280;3299;42.004;24.868;2023-07-20T01:40:37;97723.09;;;24.80;57.77
6532;BME280;3299;42.004;24.868;2023-07-20T01:43:03;97691.41;;;24.60;58.27
6532;BME280;3299;42.004;24.868;2023-07-20T01:45:28;97696.72;;;24.60;58.62
6532;BME280;3299;42.004;24.868;2023-07-20T01:47:54;97708.31;;;24.66;58.71
6532;BME280;3299;42.004;24.868;2023-07-20T01:50:19;97689.84;;;24.40;59.20
6532;BME280;3299;42.004;24.868;2023-07-20T01:52:44;97698.59;;;24.40;59.71
6532;BME280;3299;42.004;24.868;2023-07-20T01:55:10;97731.91;;;24.48;59.93
6532;BME280;3299;42.004;24.868;2023-07-20T01:57:35;97720.94;;;24.44;59.88
6532;BME280;3299;42.004;24.868;2023-07-20T02:00:01;97715.69;;;24.38;60.47
6532;BME280;3299;42.004;24.868;2023-07-20T02:02:27;97722.63;;;24.32;60.79
6532;BME280;3299;42.004;24.868;2023-07-20T02:04:53;97707.97;;;24.30;60.61
6532;BME280;3299;42.004;24.868;2023-07-20T02:07:19;97702.09;;;24.21;60.76
6532;BME280;3299;42.004;24.868;2023-07-20T02:09:44;97707.19;;;24.29;61.05
6532;BME280;3299;42.004;24.868;2023-07-20T02:12:09;97696.41;;;24.18;61.18
6532;BME280;3299;42.004;24.868;2023-07-20T02:14:35;97706.19;;;24.04;61.61
6532;BME280;3299;42.004;24.868;2023-07-20T02:17:00;97733.44;;;24.18;61.76
6532;BME280;3299;42.004;24.868;2023-07-20T02:19:26;97704.22;;;23.94;62.33
6532;BME280;3299;42.004;24.868;2023-07-20T02:21:52;97730.59;;;24.13;62.38
6532;BME280;3299;42.004;24.868;2023-07-20T02:24:18;97733.06;;;24.02;62.67
6532;BME280;3299;42.004;24.868;2023-07-20T02:26:43;97740.41;;;24.00;62.97
6532;BME280;3299;42.004;24.868;2023-07-20T02:29:09;97743.22;;;24.04;62.83
6532;BME280;3299;42.004;24.868;2023-07-20T02:31:37;97748.09;;;24.08;63.11
6532;BME280;3299;42.004;24.868;2023-07-20T02:34:03;97755.22;;;24.13;63.16
6532;BME280;3299;42.004;24.868;2023-07-20T02:36:28;97719.84;;;24.02;62.50
6532;BME280;3299;42.004;24.868;2023-07-20T02:38:53;97743.22;;;24.17;62.42
6532;BME280;3299;42.004;24.868;2023-07-20T02:41:19;97734.84;;;24.20;62.41
6532;BME280;3299;42.004;24.868;2023-07-20T02:43:45;97723.63;;;24.25;61.77
6532;BME280;3299;42.004;24.868;2023-07-20T02:46:10;97703.56;;;24.17;61.79
6532;BME280;3299;42.004;24.868;2023-07-20T02:48:36;97730.72;;;24.44;61.86
6532;BME280;3299;42.004;24.868;2023-07-20T02:51:01;97728.47;;;24.60;60.97
6532;BME280;3299;42.004;24.868;2023-07-20T02:53:27;97697.56;;;24.41;60.68
6532;BME280;3299;42.004;24.868;2023-07-20T02:55:52;97704.66;;;24.60;60.22
6532;BME280;3299;42.004;24.868;2023-07-20T02:58:18;97681.06;;;24.52;60.44
6532;BME280;3299;42.004;24.868;2023-07-20T03:00:44;97682.47;;;24.61;60.50
6532;BME280;3299;42.004;24.868;2023-07-20T03:03:09;97678.81;;;24.56;59.74
6532;BME280;3299;42.004;24.868;2023-07-20T03:05:36;97691.78;;;24.70;59.51
6532;BME280;3299;42.004;24.868;2023-07-20T03:08:03;97696.44;;;24.75;59.34
6532;BME280;3299;42.004;24.868;2023-07-20T03:10:31;97721.41;;;24.85;59.44
6532;BME280;3299;42.004;24.868;2023-07-20T03:12:57;97722.25;;;24.79;59.82
6532;BME280;3299;42.004;24.868;2023-07-20T03:15:22;97715.22;;;24.67;60.61
6532;BME280;3299;42.004;24.868;2023-07-20T03:17:47;97692.03;;;24.56;61.14
6532;BME280;3299;42.004;24.868;2023-07-20T03:20:13;97672.31;;;24.45;60.88
6532;BME280;3299;42.004;24.868;2023-07-20T03:22:38;97708.25;;;24.72;60.20
6532;BME280;3299;42.004;24.868;2023-07-20T03:25:04;97706.06;;;24.69;60.10
6532;BME280;3299;42.004;24.868;2023-07-20T03:27:30;97669.44;;;24.53;60.66
6532;BME280;3299;42.004;24.868;2023-07-20T03:29:55;97709.47;;;24.76;60.67
6532;BME280;3299;42.004;24.868;2023-07-20T03:32:20;97690.94;;;24.76;60.41
6532;BME280;3299;42.004;24.868;2023-07-20T03:34:46;97706.75;;;24.89;60.85
6532;BME280;3299;42.004;24.868;2023-07-20T03:37:12;97668.16;;;24.75;60.49
6532;BME280;3299;42.004;24.868;2023-07-20T03:39:38;97694.53;;;24.88;61.20
6532;BME280;3299;42.004;24.868;2023-07-20T03:42:04;97676.31;;;24.74;61.42
6532;BME280;3299;42.004;24.868;2023-07-20T03:44:30;97671.00;;;24.80;61.08
6532;BME280;3299;42.004;24.868;2023-07-20T03:46:55;97711.13;;;25.08;60.42
6532;BME280;3299;42.004;24.868;2023-07-20T03:49:21;97670.06;;;24.99;59.75
6532;BME280;3299;42.004;24.868;2023-07-20T03:51:46;97686.69;;;25.06;59.59
6532;BME280;3299;42.004;24.868;2023-07-20T03:54:11;97700.06;;;25.18;58.92
6532;BME280;3299;42.004;24.868;2023-07-20T03:56:37;97696.59;;;25.17;58.83
6532;BME280;3299;42.004;24.868;2023-07-20T03:59:02;97679.97;;;25.10;58.68
6532;BME280;3299;42.004;24.868;2023-07-20T04:01:28;97676.28;;;25.11;59.04
6532;BME280;3299;42.004;24.868;2023-07-20T04:03:53;97677.22;;;25.23;58.75
6532;BME280;3299;42.004;24.868;2023-07-20T04:06:19;97682.06;;;25.33;58.83
6532;BME280;3299;42.004;24.868;2023-07-20T04:08:44;97669.47;;;25.28;58.82
6532;BME280;3299;42.004;24.868;2023-07-20T04:11:12;97672.28;;;25.33;59.12
6532;BME280;3299;42.004;24.868;2023-07-20T04:13:38;97669.84;;;25.32;59.23
6532;BME280;3299;42.004;24.868;2023-07-20T04:16:03;97689.69;;;25.47;59.18
6532;BME280;3299;42.004;24.868;2023-07-20T04:18:29;97701.22;;;25.59;59.17
6532;BME280;3299;42.004;24.868;2023-07-20T04:20:54;97693.25;;;25.59;58.08
6532;BME280;3299;42.004;24.868;2023-07-20T04:23:20;97703.81;;;25.66;57.87
6532;BME280;3299;42.004;24.868;2023-07-20T04:25:45;97710.09;;;25.71;57.80
6532;BME280;3299;42.004;24.868;2023-07-20T04:28:11;97705.69;;;25.83;57.54
6532;BME280;3299;42.004;24.868;2023-07-20T04:30:37;97703.69;;;25.79;57.98
6532;BME280;3299;42.004;24.868;2023-07-20T04:33:05;97670.44;;;25.58;59.49
6532;BME280;3299;42.004;24.868;2023-07-20T04:35:50;97713.19;;;25.68;60.02
6532;BME280;3299;42.004;24.868;2023-07-20T04:38:16;97673.81;;;25.47;59.32
6532;BME280;3299;42.004;24.868;2023-07-20T04:40:46;97705.66;;;25.65;59.03
6532;BME280;3299;42.004;24.868;2023-07-20T04:43:13;97697.50;;;25.67;58.47
6532;BME280;3299;42.004;24.868;2023-07-20T04:45:38;97698.91;;;25.69;58.46
6532;BME280;3299;42.004;24.868;2023-07-20T04:48:09;97683.00;;;25.69;57.94
6532;BME280;3299;42.004;24.868;2023-07-20T04:50:35;97696.47;;;25.92;57.82
6532;BME280;3299;42.004;24.868;2023-07-20T04:53:01;97705.25;;;26.11;57.95
6532;BME280;3299;42.004;24.868;2023-07-20T04:55:27;97679.75;;;26.10;57.22
6532;BME280;3299;42.004;24.868;2023-07-20T04:57:53;97679.03;;;26.21;56.80
6532;BME280;3299;42.004;24.868;2023-07-20T05:00:19;97717.56;;;26.41;57.32
6532;BME280;3299;42.004;24.868;2023-07-20T05:02:45;97677.09;;;26.28;57.30
6532;BME280;3299;42.004;24.868;2023-07-20T05:05:12;97689.44;;;26.40;56.41
6532;BME280;3299;42.004;24.868;2023-07-20T05:07:38;97703.69;;;26.64;56.25
6532;BME280;3299;42.004;24.868;2023-07-20T05:10:04;97701.66;;;26.77;55.35
6532;BME280;3299;42.004;24.868;2023-07-20T05:12:29;97706.38;;;26.75;55.90
6532;BME280;3299;42.004;24.868;2023-07-20T05:14:55;97715.53;;;26.79;55.67
6532;BME280;3299;42.004;24.868;2023-07-20T05:17:20;97722.84;;;26.95;55.18
6532;BME280;3299;42.004;24.868;2023-07-20T05:19:46;97707.38;;;26.92;54.32
6532;BME280;3299;42.004;24.868;2023-07-20T05:22:13;97696.63;;;26.87;54.17
6532;BME280;3299;42.004;24.868;2023-07-20T05:24:39;97725.50;;;27.13;54.13
6532;BME280;3299;42.004;24.868;2023-07-20T05:27:04;97692.63;;;26.96;54.26
6532;BME280;3299;42.004;24.868;2023-07-20T05:29:32;97683.34;;;26.87;54.52
6532;BME280;3299;42.004;24.868;2023-07-20T05:31:58;97699.41;;;26.92;54.58
6532;BME280;3299;42.004;24.868;2023-07-20T05:34:23;97686.50;;;26.96;54.79
6532;BME280;3299;42.004;24.868;2023-07-20T05:36:49;97690.53;;;26.98;54.45
6532;BME280;3299;42.004;24.868;2023-07-20T05:39:19;97712.47;;;27.23;54.43
6532;BME280;3299;42.004;24.868;2023-07-20T05:41:44;97704.78;;;27.33;53.85
6532;BME280;3299;42.004;24.868;2023-07-20T05:44:09;97707.16;;;27.23;54.27
6532;BME280;3299;42.004;24.868;2023-07-20T05:46:35;97710.78;;;27.40;53.73
6532;BME280;3299;42.004;24.868;2023-07-20T05:49:00;97702.69;;;27.35;54.02
6532;BME280;3299;42.004;24.868;2023-07-20T05:51:27;97701.47;;;27.49;54.06
6532;BME280;3299;42.004;24.868;2023-07-20T05:53:52;97705.53;;;27.63;53.61
6532;BME280;3299;42.004;24.868;2023-07-20T05:56:18;97696.38;;;27.59;53.47
6532;BME280;3299;42.004;24.868;2023-07-20T05:58:43;97692.94;;;27.70;53.33
6532;BME280;3299;42.004;24.868;2023-07-20T06:01:09;97711.94;;;27.97;52.93
6532;BME280;3299;42.004;24.868;2023-07-20T06:03:34;97695.19;;;27.96;52.27
6532;BME280;3299;42.004;24.868;2023-07-20T06:06:00;97697.47;;;28.04;52.36
6532;BME280;3299;42.004;24.868;2023-07-20T06:08:30;97693.66;;;28.12;52.61
6532;BME280;3299;42.004;24.868;2023-07-20T06:10:56;97705.09;;;28.35;51.83
6532;BME280;3299;42.004;24.868;2023-07-20T06:13:21;97694.22;;;28.48;51.45
6532;BME280;3299;42.004;24.868;2023-07-20T06:15:47;97674.09;;;28.41;51.68
6532;BME280;3299;42.004;24.868;2023-07-20T06:18:13;97674.19;;;28.34;51.45
6532;BME280;3299;42.004;24.868;2023-07-20T06:20:38;97661.34;;;28.43;51.59
6532;BME280;3299;42.004;24.868;2023-07-20T06:23:04;97666.66;;;28.54;51.54
6532;BME280;3299;42.004;24.868;2023-07-20T06:25:29;97665.91;;;28.70;51.25
6532;BME280;3299;42.004;24.868;2023-07-20T06:27:55;97685.06;;;28.95;50.69
6532;BME280;3299;42.004;24.868;2023-07-20T06:30:21;97682.81;;;29.04;50.70
6532;BME280;3299;42.004;24.868;2023-07-20T06:32:47;97682.09;;;29.08;50.34
6532;BME280;3299;42.004;24.868;2023-07-20T06:35:13;97670.72;;;29.13;50.31
6532;BME280;3299;42.004;24.868;2023-07-20T06:37:39;97673.00;;;29.21;50.27
6532;BME280;3299;42.004;24.868;2023-07-20T06:40:05;97640.38;;;29.14;50.33
6532;BME280;3299;42.004;24.868;2023-07-20T06:42:30;97646.19;;;29.27;50.18
6532;BME280;3299;42.004;24.868;2023-07-20T06:44:57;97647.16;;;29.38;49.70
6532;BME280;3299;42.004;24.868;2023-07-20T06:47:22;97673.28;;;29.52;49.31
6532;BME280;3299;42.004;24.868;2023-07-20T06:49:48;97662.13;;;29.55;49.39
6532;BME280;3299;42.004;24.868;2023-07-20T06:52:13;97663.19;;;29.54;48.30
6532;BME280;3299;42.004;24.868;2023-07-20T06:54:38;97675.22;;;29.73;48.77
6532;BME280;3299;42.004;24.868;2023-07-20T06:57:05;97686.59;;;29.85;48.63
6532;BME280;3299;42.004;24.868;2023-07-20T06:59:30;97663.69;;;29.68;47.39
6532;BME280;3299;42.004;24.868;2023-07-20T07:01:56;97665.28;;;29.52;48.25
6532;BME280;3299;42.004;24.868;2023-07-20T07:04:21;97680.63;;;29.78;47.46
6532;BME280;3299;42.004;24.868;2023-07-20T07:06:47;97667.78;;;29.92;47.50
6532;BME280;3299;42.004;24.868;2023-07-20T07:09:13;97669.28;;;30.04;46.96
6532;BME280;3299;42.004;24.868;2023-07-20T07:11:40;97656.38;;;30.13;47.06
6532;BME280;3299;42.004;24.868;2023-07-20T07:14:05;97687.22;;;30.47;46.33
6532;BME280;3299;42.004;24.868;2023-07-20T07:16:31;97690.84;;;30.57;46.66
6532;BME280;3299;42.004;24.868;2023-07-20T07:18:56;97661.88;;;30.49;46.35
6532;BME280;3299;42.004;24.868;2023-07-20T07:21:21;97666.06;;;30.62;46.33
6532;BME280;3299;42.004;24.868;2023-07-20T07:23:47;97663.25;;;30.73;46.48
6532;BME280;3299;42.004;24.868;2023-07-20T07:26:13;97674.44;;;30.92;46.02
6532;BME280;3299;42.004;24.868;2023-07-20T07:28:38;97677.47;;;31.00;45.78
6532;BME280;3299;42.004;24.868;2023-07-20T07:31:07;97642.72;;;30.74;45.72
6532;BME280;3299;42.004;24.868;2023-07-20T07:33:33;97665.50;;;30.81;46.24
6532;BME280;3299;42.004;24.868;2023-07-20T07:35:58;97660.56;;;30.68;45.83
6532;BME280;3299;42.004;24.868;2023-07-20T07:38:24;97667.59;;;30.79;46.18
6532;BME280;3299;42.004;24.868;2023-07-20T07:40:49;97659.66;;;30.84;46.16
6532;BME280;3299;42.004;24.868;2023-07-20T07:43:15;97666.47;;;30.97;45.88
6532;BME280;3299;42.004;24.868;2023-07-20T07:45:40;97671.88;;;31.02;44.92
6532;BME280;3299;42.004;24.868;2023-07-20T07:48:06;97652.00;;;30.93;45.92
6532;BME280;3299;42.004;24.868;2023-07-20T07:50:33;97662.28;;;31.06;45.62
6532;BME280;3299;42.004;24.868;2023-07-20T07:52:58;97659.69;;;31.16;46.04
6532;BME280;3299;42.004;24.868;2023-07-20T07:55:24;97653.81;;;31.14;45.58
6532;BME280;3299;42.004;24.868;2023-07-20T07:57:51;97656.25;;;31.15;45.73
6532;BME280;3299;42.004;24.868;2023-07-20T08:00:17;97655.56;;;31.25;46.21
6532;BME280;3299;42.004;24.868;2023-07-20T08:02:45;97652.19;;;31.39;44.92
6532;BME280;3299;42.004;24.868;2023-07-20T08:05:12;97644.66;;;31.36;44.99
6532;BME280;3299;42.004;24.868;2023-07-20T08:07:38;97689.88;;;31.69;44.33
6532;BME280;3299;42.004;24.868;2023-07-20T08:10:03;97681.41;;;31.77;44.00
6532;BME280;3299;42.004;24.868;2023-07-20T08:12:29;97682.50;;;31.81;44.29
6532;BME280;3299;42.004;24.868;2023-07-20T08:14:54;97684.66;;;31.79;43.54
6532;BME280;3299;42.004;24.868;2023-07-20T08:17:20;97674.19;;;31.78;44.03
6532;BME280;3299;42.004;24.868;2023-07-20T08:19:46;97658.59;;;31.70;43.90
6532;BME280;3299;42.004;24.868;2023-07-20T08:22:11;97658.13;;;31.78;43.39
6532;BME280;3299;42.004;24.868;2023-07-20T08:24:40;97684.78;;;31.99;44.01
6532;BME280;3299;42.004;24.868;2023-07-20T08:27:06;97679.94;;;31.96;43.71
6532;BME280;3299;42.004;24.868;2023-07-20T08:29:32;97689.16;;;32.15;43.30
6532;BME280;3299;42.004;24.868;2023-07-20T08:31:57;97691.59;;;32.22;43.58
6532;BME280;3299;42.004;24.868;2023-07-20T08:34:23;97676.88;;;32.19;42.85
6532;BME280;3299;42.004;24.868;2023-07-20T08:36:48;97671.50;;;32.14;42.74
6532;BME280;3299;42.004;24.868;2023-07-20T08:39:13;97686.03;;;32.28;42.49
6532;BME280;3299;42.004;24.868;2023-07-20T08:41:40;97666.19;;;32.24;42.26
6532;BME280;3299;42.004;24.868;2023-07-20T08:44:08;97695.25;;;32.47;42.86
6532;BME280;3299;42.004;24.868;2023-07-20T08:46:35;97683.16;;;32.35;42.60
6532;BME280;3299;42.004;24.868;2023-07-20T08:49:02;97696.00;;;32.38;41.96
6532;BME280;3299;42.004;24.868;2023-07-20T08:51:29;97693.59;;;32.41;42.57
6532;BME280;3299;42.004;24.868;2023-07-20T08:53:55;97679.66;;;32.34;41.67
6532;BME280;3299;42.004;24.868;2023-07-20T08:56:20;97689.63;;;32.49;42.57
6532;BME280;3299;42.004;24.868;2023-07-20T08:58:49;97695.59;;;32.66;42.52
6532;BME280;3299;42.004;24.868;2023-07-20T09:01:15;97676.59;;;32.67;42.15
6532;BME280;3299;42.004;24.868;2023-07-20T09:03:45;97692.72;;;32.77;41.52
6532;BME280;3299;42.004;24.868;2023-07-20T09:06:10;97680.88;;;32.68;41.27
6532;BME280;3299;42.004;24.868;2023-07-20T09:08:40;97654.28;;;32.57;42.23
6532;BME280;3299;42.004;24.868;2023-07-20T09:11:05;97660.84;;;32.76;41.12
6532;BME280;3299;42.004;24.868;2023-07-20T09:13:34;97669.19;;;32.89;40.78
6532;BME280;3299;42.004;24.868;2023-07-20T09:16:00;97672.94;;;32.98;40.44
6532;BME280;3299;42.004;24.868;2023-07-20T09:18:30;97662.22;;;32.98;40.51
6532;BME280;3299;42.004;24.868;2023-07-20T09:21:06;97666.00;;;33.07;40.97
6532;BME280;3299;42.004;24.868;2023-07-20T09:23:38;97631.41;;;33.01;41.23
6532;BME280;3299;42.004;24.868;2023-07-20T09:26:12;97652.34;;;33.24;40.83
6532;BME280;3299;42.004;24.868;2023-07-20T09:28:49;97614.47;;;32.85;40.57
6532;BME280;3299;42.004;24.868;2023-07-20T09:31:18;97623.06;;;32.87;41.46
6532;BME280;3299;42.004;24.868;2023-07-20T09:33:44;97651.25;;;33.20;40.82
6532;BME280;3299;42.004;24.868;2023-07-20T09:36:10;97645.09;;;33.19;40.92
6532;BME280;3299;42.004;24.868;2023-07-20T09:38:40;97651.03;;;33.31;40.41
6532;BME280;3299;42.004;24.868;2023-07-20T09:41:06;97645.13;;;33.34;40.94
6532;BME280;3299;42.004;24.868;2023-07-20T09:43:34;97641.38;;;33.40;40.09
6532;BME280;3299;42.004;24.868;2023-07-20T09:45:59;97629.28;;;33.43;40.19
6532;BME280;3299;42.004;24.868;2023-07-20T09:48:25;97629.31;;;33.28;40.48
6532;BME280;3299;42.004;24.868;2023-07-20T09:50:52;97594.66;;;33.06;40.31
6532;BME280;3299;42.004;24.868;2023-07-20T09:53:19;97622.06;;;33.33;40.23
6532;BME280;3299;42.004;24.868;2023-07-20T09:55:45;97603.81;;;33.40;41.11
6532;BME280;3299;42.004;24.868;2023-07-20T09:58:11;97587.44;;;33.42;39.70
6532;BME280;3299;42.004;24.868;2023-07-20T10:00:38;97597.34;;;33.66;39.89
6532;BME280;3299;42.004;24.868;2023-07-20T10:03:05;97596.28;;;33.57;38.45
6532;BME280;3299;42.004;24.868;2023-07-20T10:05:35;97583.69;;;33.63;39.40
6532;BME280;3299;42.004;24.868;2023-07-20T10:08:03;97579.09;;;33.83;38.29
6532;BME280;3299;42.004;24.868;2023-07-20T10:10:31;97581.19;;;34.01;38.97
6532;BME280;3299;42.004;24.868;2023-07-20T10:13:00;97598.81;;;34.32;38.29
6532;BME280;3299;42.004;24.868;2023-07-20T10:15:43;97600.09;;;34.50;37.16
6532;BME280;3299;42.004;24.868;2023-07-20T10:18:30;97595.19;;;34.62;36.72
6532;BME280;3299;42.004;24.868;2023-07-20T10:20:56;97561.09;;;34.52;36.69
6532;BME280;3299;42.004;24.868;2023-07-20T10:23:24;97565.28;;;34.68;36.25
6532;BME280;3299;42.004;24.868;2023-07-20T10:25:52;97581.81;;;34.95;36.76
6532;BME280;3299;42.004;24.868;2023-07-20T10:28:17;97554.53;;;34.68;36.33
6532;BME280;3299;42.004;24.868;2023-07-20T10:30:43;97547.78;;;34.71;36.43
6532;BME280;3299;42.004;24.868;2023-07-20T10:33:09;97536.78;;;34.77;37.10
6532;BME280;3299;42.004;24.868;2023-07-20T10:35:57;97567.66;;;35.18;35.93
6532;BME280;3299;42.004;24.868;2023-07-20T10:38:42;97538.88;;;35.19;35.55
6532;BME280;3299;42.004;24.868;2023-07-20T10:41:33;97545.41;;;35.41;35.35
6532;BME280;3299;42.004;24.868;2023-07-20T10:44:04;97561.38;;;35.56;34.84
6532;BME280;3299;42.004;24.868;2023-07-20T10:46:48;97533.78;;;35.46;34.47
6532;BME280;3299;42.004;24.868;2023-07-20T10:49:14;97561.44;;;35.80;34.87
6532;BME280;3299;42.004;24.868;2023-07-20T10:51:45;97572.75;;;36.05;33.92
6532;BME280;3299;42.004;24.868;2023-07-20T10:56:44;97550.97;;;36.44;33.46
6532;BME280;3299;42.004;24.868;2023-07-20T11:01:56;97543.13;;;36.84;32.45
6532;BME280;3299;42.004;24.868;2023-07-20T11:04:47;97545.50;;;37.04;32.38
6532;BME280;3299;42.004;24.868;2023-07-20T11:07:17;97545.88;;;37.16;30.91
6532;BME280;3299;42.004;24.868;2023-07-20T11:09:43;97558.66;;;37.43;30.83
6532;BME280;3299;42.004;24.868;2023-07-20T11:12:27;97537.69;;;37.53;31.05
6532;BME280;3299;42.004;24.868;2023-07-20T11:14:56;97519.72;;;37.62;30.18
6532;BME280;3299;42.004;24.868;2023-07-20T11:17:29;97515.25;;;37.39;30.20
6532;BME280;3299;42.004;24.868;2023-07-20T11:19:56;97543.72;;;37.64;30.47
6532;BME280;3299;42.004;24.868;2023-07-20T11:22:22;97511.84;;;37.47;30.39
6532;BME280;3299;42.004;24.868;2023-07-20T11:24:48;97550.72;;;37.78;31.05
6532;BME280;3299;42.004;24.868;2023-07-20T11:27:16;97525.03;;;37.81;30.80
6532;BME280;3299;42.004;24.868;2023-07-20T11:29:45;97507.28;;;37.88;30.19
6532;BME280;3299;42.004;24.868;2023-07-20T11:32:10;97533.31;;;37.98;30.12
6532;BME280;3299;42.004;24.868;2023-07-20T11:34:36;97513.13;;;37.82;30.67
6532;BME280;3299;42.004;24.868;2023-07-20T11:37:01;97513.13;;;37.95;30.02
6532;BME280;3299;42.004;24.868;2023-07-20T11:39:29;97515.69;;;38.14;29.81
6532;BME280;3299;42.004;24.868;2023-07-20T11:41:56;97505.53;;;38.33;29.90
6532;BME280;3299;42.004;24.868;2023-07-20T11:44:26;97487.66;;;38.23;30.26
6532;BME280;3299;42.004;24.868;2023-07-20T11:47:09;97490.88;;;38.12;29.83
6532;BME280;3299;42.004;24.868;2023-07-20T11:49:39;97501.44;;;38.35;29.46
6532;BME280;3299;42.004;24.868;2023-07-20T11:52:06;97493.06;;;38.23;29.57
6532;BME280;3299;42.004;24.868;2023-07-20T11:54:32;97518.09;;;38.64;30.33
6532;BME280;3299;42.004;24.868;2023-07-20T11:57:01;97501.94;;;38.37;30.20
6532;BME280;3299;42.004;24.868;2023-07-20T11:59:26;97505.50;;;38.24;29.68
6532;BME280;3299;42.004;24.868;2023-07-20T12:01:52;97513.47;;;38.29;29.50
6532;BME280;3299;42.004;24.868;2023-07-20T12:04:18;97481.97;;;38.11;29.54
6532;BME280;3299;42.004;24.868;2023-07-20T12:06:45;97488.53;;;38.32;29.76
6532;BME280;3299;42.004;24.868;2023-07-20T12:09:14;97503.56;;;38.74;28.60
6532;BME280;3299;42.004;24.868;2023-07-20T12:11:40;97481.97;;;38.82;29.20
6532;BME280;3299;42.004;24.868;2023-07-20T12:14:08;97494.56;;;39.00;29.46
6532;BME280;3299;42.004;24.868;2023-07-20T12:16:35;97482.66;;;39.10;28.96
6532;BME280;3299;42.004;24.868;2023-07-20T12:19:13;97474.34;;;38.84;29.00
6532;BME280;3299;42.004;24.868;2023-07-20T12:21:40;97487.38;;;38.60;28.99
6532;BME280;3299;42.004;24.868;2023-07-20T12:24:08;97458.84;;;38.76;28.96
6532;BME280;3299;42.004;24.868;2023-07-20T12:26:37;97485.31;;;39.01;28.24
6532;BME280;3299;42.004;24.868;2023-07-20T12:29:03;97462.81;;;38.92;28.31
6532;BME280;3299;42.004;24.868;2023-07-20T12:31:29;97454.41;;;39.24;28.49
6532;BME280;3299;42.004;24.868;2023-07-20T12:33:56;97416.63;;;39.50;28.25
6532;BME280;3299;42.004;24.868;2023-07-20T12:36:22;97433.91;;;39.79;27.73
6532;BME280;3299;42.004;24.868;2023-07-20T12:38:48;97415.94;;;39.92;27.18
6532;BME280;3299;42.004;24.868;2023-07-20T12:41:13;97447.28;;;40.32;26.25
6532;BME280;3299;42.004;24.868;2023-07-20T12:43:43;97422.22;;;40.43;26.48
6532;BME280;3299;42.004;24.868;2023-07-20T12:46:09;97439.16;;;40.57;26.15
6532;BME280;3299;42.004;24.868;2023-07-20T12:48:36;97455.75;;;40.64;26.30
6532;BME280;3299;42.004;24.868;2023-07-20T12:51:06;97439.31;;;40.69;25.78
6532;BME280;3299;42.004;24.868;2023-07-20T12:53:32;97450.44;;;40.93;25.36
6532;BME280;3299;42.004;24.868;2023-07-20T12:55:58;97417.75;;;40.39;25.93
6532;BME280;3299;42.004;24.868;2023-07-20T12:58:23;97442.47;;;40.29;27.01
6532;BME280;3299;42.004;24.868;2023-07-20T13:00:49;97454.78;;;40.60;26.43
6532;BME280;3299;42.004;24.868;2023-07-20T13:03:14;97422.19;;;40.77;26.62
6532;BME280;3299;42.004;24.868;2023-07-20T13:05:41;97445.44;;;41.12;26.41
6532;BME280;3299;42.004;24.868;2023-07-20T13:08:07;97424.31;;;41.26;25.61
6532;BME280;3299;42.004;24.868;2023-07-20T13:10:32;97451.63;;;41.67;25.29
6532;BME280;3299;42.004;24.868;2023-07-20T13:12:59;97425.22;;;41.47;25.37
6532;BME280;3299;42.004;24.868;2023-07-20T13:15:29;97451.06;;;41.91;25.14
6532;BME280;3299;42.004;24.868;2023-07-20T13:17:57;97440.34;;;42.15;25.34
6532;BME280;3299;42.004;24.868;2023-07-20T13:20:22;97414.25;;;42.22;24.42
6532;BME280;3299;42.004;24.868;2023-07-20T13:22:48;97428.31;;;42.16;24.28
6532;BME280;3299;42.004;24.868;2023-07-20T13:25:14;97435.63;;;41.74;24.79
6532;BME280;3299;42.004;24.868;2023-07-20T13:27:39;97435.31;;;41.67;25.00